Tremley Point, New Jersey
Current Conditions -  °F | °C
As of 5:15 PM on Monday 22 Dec 2014 (Local Time) from KLDJ Reporting Station
Overcast Overcast  
Wind Chill: 43°   Ceiling: 1000
Heat Index: 46°   Visibility: 7mi
Dew Point: 43°   Wind: 5mph
Humidity: 90%   Direction: 50°NE
Pressure: 30.23"   Gusts: NA
Location:  40.6259°N, 74.2395°W
Report Text: KLDJ 222215Z AUTO 05004KT 7SM OVC010 08/06 A3023 RMK AO2 T00750060
Loading
Personal Weather Stations






























Interactive Weather Map New forecast layout! Learn more

10-Day Weather Forecast

Advertisements
Track Severe Weather on mobile